createdAt,value
2022-07-28T00:00:08.504Z,6.77
2022-07-28T00:02:36.095Z,7.00
2022-07-28T00:05:03.986Z,6.70
2022-07-28T00:07:31.559Z,7.40
2022-07-28T00:10:00.841Z,7.17
2022-07-28T00:12:28.618Z,7.20
2022-07-28T00:14:55.664Z,7.07
2022-07-28T00:17:22.941Z,7.43
2022-07-28T00:19:51.010Z,6.80
2022-07-28T00:22:18.575Z,6.87
2022-07-28T00:24:45.654Z,6.77
2022-07-28T00:27:13.878Z,7.37
2022-07-28T00:29:49.329Z,6.27
2022-07-28T00:32:18.883Z,6.70
2022-07-28T00:34:46.115Z,6.70
2022-07-28T00:37:14.756Z,6.83
2022-07-28T00:39:42.546Z,6.27
2022-07-28T00:42:09.846Z,6.80
2022-07-28T00:44:39.220Z,7.27
2022-07-28T00:47:06.450Z,6.60
2022-07-28T00:49:33.654Z,6.37
2022-07-28T00:52:01.097Z,7.03
2022-07-28T00:54:28.113Z,6.53
2022-07-28T00:56:55.108Z,6.50
2022-07-28T00:59:22.128Z,7.00
2022-07-28T01:01:49.600Z,6.33
2022-07-28T01:04:21.787Z,6.80
2022-07-28T01:07:06.813Z,7.10
2022-07-28T01:09:57.080Z,6.90
2022-07-28T01:12:33.065Z,6.60
2022-07-28T01:15:14.917Z,6.87
2022-07-28T01:18:03.193Z,6.70
2022-07-28T01:20:55.121Z,7.20
2022-07-28T01:23:33.990Z,8.07
2022-07-28T01:26:28.367Z,6.80
2022-07-28T01:29:14.495Z,7.10
2022-07-28T01:31:45.459Z,6.50
2022-07-28T01:34:20.206Z,7.27
2022-07-28T01:36:57.318Z,6.67
2022-07-28T01:39:27.840Z,7.10
2022-07-28T01:41:56.493Z,6.40
2022-07-28T01:44:26.440Z,6.00
2022-07-28T01:46:54.759Z,6.53
2022-07-28T01:49:23.345Z,5.70
2022-07-28T01:51:52.543Z,6.83
2022-07-28T01:54:22.301Z,6.47
2022-07-28T01:56:51.836Z,6.60
2022-07-28T01:59:20.575Z,6.73
2022-07-28T02:01:48.892Z,6.90
2022-07-28T02:04:20.337Z,6.40
2022-07-28T02:06:49.975Z,6.67
2022-07-28T02:09:19.029Z,6.40
2022-07-28T02:11:47.886Z,6.27
2022-07-28T02:14:20.793Z,6.70
2022-07-28T02:16:51.841Z,6.50
2022-07-28T02:19:19.830Z,7.10
2022-07-28T02:21:48.190Z,5.90
2022-07-28T02:24:19.266Z,6.63
2022-07-28T02:26:59.127Z,6.18
2022-07-28T02:29:49.894Z,6.18
2022-07-28T02:32:28.294Z,6.35
2022-07-28T02:35:05.339Z,6.28
2022-07-28T02:37:40.105Z,6.10
2022-07-28T02:40:13.796Z,6.20
2022-07-28T02:42:42.079Z,6.45
2022-07-28T02:45:12.042Z,6.00
2022-07-28T02:47:51.743Z,5.70
2022-07-28T02:50:24.015Z,6.18
2022-07-28T02:52:53.150Z,7.32
2022-07-28T02:55:20.491Z,6.30
2022-07-28T02:57:53.186Z,6.05
2022-07-28T03:00:24.731Z,6.57
2022-07-28T03:02:54.743Z,6.30
2022-07-28T03:05:22.652Z,6.70
2022-07-28T03:07:52.933Z,6.03
2022-07-28T03:10:33.898Z,6.25
2022-07-28T03:13:03.448Z,5.82
2022-07-28T03:15:31.237Z,6.05
2022-07-28T03:17:59.039Z,5.90
2022-07-28T03:20:26.059Z,5.32
2022-07-28T03:22:53.156Z,6.35
2022-07-28T03:25:26.680Z,6.70
2022-07-28T03:27:54.572Z,6.13
2022-07-28T03:30:26.977Z,6.25
2022-07-28T03:33:01.837Z,6.60
2022-07-28T03:35:31.590Z,6.15
2022-07-28T03:38:03.767Z,5.82
2022-07-28T03:40:33.547Z,5.43
2022-07-28T03:43:08.409Z,6.80
2022-07-28T03:45:37.176Z,6.65
2022-07-28T03:48:08.359Z,5.50
2022-07-28T03:50:35.418Z,5.57
2022-07-28T03:53:05.339Z,5.72
2022-07-28T03:55:32.340Z,5.65
2022-07-28T03:57:59.444Z,5.80
2022-07-28T04:00:26.482Z,6.10
2022-07-28T04:02:53.530Z,5.55
2022-07-28T04:05:21.228Z,5.45
2022-07-28T04:07:48.270Z,5.28
2022-07-28T04:10:17.358Z,6.20
2022-07-28T04:12:49.648Z,5.27
2022-07-28T04:15:17.456Z,6.10
2022-07-28T04:17:45.118Z,5.15
2022-07-28T04:20:12.751Z,5.72
2022-07-28T04:22:39.706Z,5.55
2022-07-28T04:25:07.955Z,4.90
2022-07-28T04:27:38.119Z,4.82
2022-07-28T04:30:08.126Z,5.07
2022-07-28T04:32:35.237Z,5.18
2022-07-28T04:35:02.233Z,5.07
2022-07-28T04:37:32.501Z,4.75
2022-07-28T04:39:59.822Z,4.30
2022-07-28T04:42:26.879Z,5.23
2022-07-28T04:44:54.000Z,4.83
2022-07-28T04:47:21.095Z,5.05
2022-07-28T04:49:48.100Z,4.37
2022-07-28T04:52:15.957Z,4.57
2022-07-28T04:54:43.063Z,5.20
2022-07-28T04:57:12.717Z,5.00
2022-07-28T04:59:40.129Z,4.73
2022-07-28T05:02:07.687Z,5.10
2022-07-28T05:04:35.209Z,4.90
2022-07-28T05:07:02.267Z,4.03
2022-07-28T05:09:39.738Z,5.00
2022-07-28T05:12:06.976Z,4.30
2022-07-28T05:14:33.955Z,5.20
2022-07-28T05:17:01.037Z,4.50
2022-07-28T05:19:28.050Z,4.27
2022-07-28T05:21:55.022Z,4.70
2022-07-28T05:24:21.990Z,4.93
2022-07-28T05:26:49.040Z,4.60
2022-07-28T05:29:16.006Z,4.13
2022-07-28T05:31:43.053Z,4.77
2022-07-28T05:34:10.243Z,4.23
2022-07-28T05:36:37.304Z,5.00
2022-07-28T05:39:04.414Z,5.17
2022-07-28T05:41:31.456Z,5.03
2022-07-28T05:43:58.603Z,4.80
2022-07-28T05:46:25.681Z,4.80
2022-07-28T05:48:53.095Z,4.37
2022-07-28T05:51:20.192Z,5.10
2022-07-28T05:53:47.203Z,5.23
2022-07-28T05:56:14.312Z,5.30
2022-07-28T05:58:41.269Z,4.93
2022-07-28T06:01:08.318Z,4.93
2022-07-28T06:03:41.553Z,5.00
2022-07-28T06:06:15.771Z,4.60
2022-07-28T06:08:47.761Z,4.70
2022-07-28T06:11:21.683Z,4.67
2022-07-28T06:13:51.766Z,4.13
2022-07-28T06:16:21.212Z,4.80
2022-07-28T06:18:49.111Z,4.80
2022-07-28T06:21:16.099Z,4.20
2022-07-28T06:23:43.208Z,4.90
2022-07-28T06:26:10.217Z,5.40
2022-07-28T06:28:38.661Z,4.60
2022-07-28T06:31:05.712Z,5.00
2022-07-28T06:33:32.779Z,4.93
2022-07-28T06:35:59.898Z,4.90
2022-07-28T06:38:26.877Z,5.97
2022-07-28T06:40:53.957Z,5.53
2022-07-28T06:43:21.034Z,6.33
2022-07-28T06:45:48.006Z,7.33
2022-07-28T06:48:15.111Z,6.57
2022-07-28T06:50:43.303Z,4.37
2022-07-28T06:53:10.382Z,5.00
2022-07-28T06:55:38.366Z,5.13
2022-07-28T06:58:08.355Z,5.00
2022-07-28T07:00:35.521Z,5.50
2022-07-28T07:03:02.610Z,4.80
2022-07-28T07:05:32.558Z,4.80
2022-07-28T07:08:00.574Z,5.50
2022-07-28T07:10:27.831Z,4.70
2022-07-28T07:12:54.869Z,4.50
2022-07-28T07:15:21.925Z,4.20
2022-07-28T07:17:48.914Z,5.20
2022-07-28T07:20:18.213Z,4.87
2022-07-28T07:22:47.843Z,4.20
2022-07-28T07:25:17.411Z,4.20
2022-07-28T07:27:45.709Z,4.60
2022-07-28T07:30:13.842Z,5.10
2022-07-28T07:32:41.970Z,4.20
2022-07-28T07:35:09.704Z,4.70
2022-07-28T07:37:36.797Z,4.77
2022-07-28T07:40:06.408Z,5.80
2022-07-28T07:42:33.998Z,4.20
2022-07-28T07:45:00.982Z,5.23
2022-07-28T07:47:28.038Z,5.10
2022-07-28T07:49:55.057Z,4.67
2022-07-28T07:52:22.020Z,4.40
2022-07-28T07:54:48.950Z,5.10
2022-07-28T07:57:16.043Z,4.83
2022-07-28T07:59:43.092Z,4.37
2022-07-28T08:02:10.204Z,5.50
2022-07-28T08:04:38.513Z,4.20
2022-07-28T08:07:06.741Z,4.90
2022-07-28T08:09:34.637Z,4.83
2022-07-28T08:12:01.755Z,5.47
2022-07-28T08:14:28.945Z,5.30
2022-07-28T08:16:56.978Z,4.80
2022-07-28T08:19:24.632Z,4.87
2022-07-28T08:21:52.093Z,5.60
2022-07-28T08:24:32.834Z,6.00
2022-07-28T08:27:05.208Z,5.60
2022-07-28T08:29:32.843Z,5.33
2022-07-28T08:32:03.142Z,5.77
2022-07-28T08:34:34.765Z,6.70
2022-07-28T08:37:04.070Z,5.10
2022-07-28T08:39:32.785Z,5.83
2022-07-28T08:42:04.562Z,5.63
2022-07-28T08:44:53.366Z,5.40
2022-07-28T08:47:21.540Z,6.00
2022-07-28T08:49:50.354Z,6.47
2022-07-28T08:52:20.699Z,5.73
2022-07-28T08:54:49.695Z,5.90
2022-07-28T08:57:28.277Z,7.20
2022-07-28T08:59:56.051Z,6.10
2022-07-28T09:02:27.171Z,5.80
2022-07-28T09:04:56.099Z,5.53
2022-07-28T09:07:23.758Z,6.17
2022-07-28T09:09:51.252Z,6.23
2022-07-28T09:12:26.679Z,6.33
2022-07-28T09:14:54.444Z,6.30
2022-07-28T09:17:21.381Z,6.73
2022-07-28T09:19:48.358Z,5.20
2022-07-28T09:22:15.352Z,6.20
2022-07-28T09:24:45.087Z,5.63
2022-07-28T09:27:14.574Z,5.90
2022-07-28T09:29:45.915Z,6.07
2022-07-28T09:32:19.287Z,6.50
2022-07-28T09:34:51.739Z,5.70
2022-07-28T09:37:27.617Z,6.83
2022-07-28T09:39:59.845Z,6.50
2022-07-28T09:42:44.580Z,6.67
2022-07-28T09:45:27.026Z,6.40
2022-07-28T09:48:14.653Z,5.83
2022-07-28T09:50:42.819Z,6.27
2022-07-28T09:53:28.332Z,7.00
2022-07-28T09:55:58.752Z,6.57
2022-07-28T09:58:27.080Z,6.63
2022-07-28T10:01:09.207Z,6.10
2022-07-28T10:03:37.488Z,7.00
2022-07-28T10:06:08.596Z,5.83
2022-07-28T10:08:45.174Z,6.33
2022-07-28T10:11:14.624Z,5.20
2022-07-28T10:14:05.762Z,5.60
2022-07-28T10:16:35.444Z,6.40
2022-07-28T10:19:05.662Z,5.83
2022-07-28T10:21:36.541Z,6.00
2022-07-28T10:24:07.502Z,5.93
2022-07-28T10:26:45.280Z,5.90
2022-07-28T10:29:21.963Z,5.97
2022-07-28T10:31:54.226Z,6.57
2022-07-28T10:34:27.957Z,5.70
2022-07-28T10:36:56.719Z,5.03
2022-07-28T10:39:29.393Z,5.80
2022-07-28T10:41:57.503Z,5.43
2022-07-28T10:44:25.018Z,6.47
2022-07-28T10:46:52.859Z,5.53
2022-07-28T10:49:21.206Z,4.97
2022-07-28T10:52:02.585Z,4.90
2022-07-28T10:54:42.907Z,4.60
2022-07-28T10:57:12.706Z,4.40
2022-07-28T11:00:12.122Z,4.60
2022-07-28T11:02:55.556Z,5.10
2022-07-28T11:05:28.491Z,4.90
2022-07-28T11:07:57.668Z,4.70
2022-07-28T11:10:24.829Z,4.83
2022-07-28T11:12:57.555Z,4.70
2022-07-28T11:15:34.629Z,4.30
2022-07-28T11:18:07.571Z,4.80
2022-07-28T11:20:58.665Z,4.10
2022-07-28T11:23:54.632Z,4.80
2022-07-28T11:26:23.630Z,4.40
2022-07-28T11:29:08.628Z,3.97
2022-07-28T11:31:44.738Z,4.30
2022-07-28T11:34:12.685Z,4.33
2022-07-28T11:36:58.464Z,5.00
2022-07-28T11:39:27.388Z,4.77
2022-07-28T11:41:54.358Z,4.40
2022-07-28T11:44:32.405Z,4.20
2022-07-28T11:47:19.266Z,3.93
2022-07-28T11:50:06.813Z,3.87
2022-07-28T11:52:33.807Z,4.20
2022-07-28T11:55:01.615Z,3.87
2022-07-28T11:57:28.867Z,4.00
2022-07-28T11:59:58.152Z,4.53
2022-07-28T12:02:28.023Z,4.40
2022-07-28T12:04:57.340Z,3.70
2022-07-28T12:07:34.589Z,4.03
2022-07-28T12:10:02.271Z,3.80
2022-07-28T12:12:29.322Z,3.43
2022-07-28T12:14:57.308Z,3.93
2022-07-28T12:17:34.072Z,4.20
2022-07-28T12:20:11.461Z,4.03
2022-07-28T12:22:41.032Z,4.17
2022-07-28T12:25:13.165Z,3.93
2022-07-28T12:27:40.958Z,3.53
2022-07-28T12:30:21.149Z,4.30
2022-07-28T12:32:48.546Z,3.43
2022-07-28T12:35:16.019Z,4.03
2022-07-28T12:37:48.094Z,3.40
2022-07-28T12:40:19.902Z,3.50
2022-07-28T12:42:54.727Z,3.87
2022-07-28T12:45:21.871Z,3.83
2022-07-28T12:47:49.078Z,4.20
2022-07-28T12:50:20.928Z,3.40
2022-07-28T12:53:11.863Z,4.20
2022-07-28T12:55:43.290Z,3.93
2022-07-28T12:58:24.955Z,3.40
2022-07-28T13:00:53.185Z,3.87
2022-07-28T13:03:25.522Z,3.27
2022-07-28T13:06:03.129Z,4.17
2022-07-28T13:08:47.077Z,4.10
2022-07-28T13:11:42.100Z,3.67
2022-07-28T13:14:03.522Z,3.30
2022-07-28T13:16:31.713Z,3.50
2022-07-28T13:19:02.950Z,3.27
2022-07-28T13:21:38.788Z,3.87
2022-07-28T13:24:07.853Z,3.30
2022-07-28T13:26:34.882Z,3.47
2022-07-28T13:29:02.901Z,3.87
2022-07-28T13:31:40.878Z,2.90
2022-07-28T13:34:10.222Z,3.20
2022-07-28T13:36:38.295Z,4.30
2022-07-28T13:39:06.974Z,3.50
2022-07-28T13:41:57.559Z,3.33
2022-07-28T13:44:21.657Z,3.20
2022-07-28T13:46:50.054Z,3.40
2022-07-28T13:49:17.487Z,3.10
2022-07-28T13:51:48.988Z,3.20
2022-07-28T13:54:19.863Z,3.37
2022-07-28T13:56:47.627Z,3.17
2022-07-28T13:59:14.626Z,3.57
2022-07-28T14:01:42.310Z,3.13
2022-07-28T14:04:14.781Z,2.60
2022-07-28T14:06:47.713Z,3.10
2022-07-28T14:09:17.861Z,2.93
2022-07-28T14:11:50.073Z,3.33
2022-07-28T14:14:24.120Z,3.50
2022-07-28T14:16:55.453Z,3.40
2022-07-28T14:19:38.460Z,3.97
2022-07-28T14:22:12.526Z,3.40
2022-07-28T14:24:40.681Z,3.23
2022-07-28T14:27:07.648Z,3.60
2022-07-28T14:29:37.935Z,3.20
2022-07-28T14:32:05.299Z,3.03
2022-07-28T14:34:32.274Z,3.93
2022-07-28T14:37:05.610Z,3.63
2022-07-28T14:39:35.860Z,3.30
2022-07-28T14:42:03.416Z,3.20
2022-07-28T14:44:30.859Z,3.50
2022-07-28T14:46:57.909Z,3.53
2022-07-28T14:49:25.061Z,3.63
2022-07-28T14:51:52.208Z,3.33
2022-07-28T14:54:19.535Z,3.50
2022-07-28T14:56:46.782Z,3.67
2022-07-28T14:59:13.741Z,4.00
2022-07-28T15:01:40.820Z,3.63
2022-07-28T15:04:07.804Z,3.37
2022-07-28T15:06:34.771Z,4.00
2022-07-28T15:09:02.121Z,3.40
2022-07-28T15:11:29.078Z,3.47
2022-07-28T15:13:56.080Z,3.77
2022-07-28T15:16:23.175Z,3.17
2022-07-28T15:18:52.655Z,3.37
2022-07-28T15:21:20.040Z,3.77
2022-07-28T15:23:47.037Z,3.20
2022-07-28T15:26:14.198Z,3.70
2022-07-28T15:28:41.255Z,3.23
2022-07-28T15:31:08.695Z,3.30
2022-07-28T15:33:41.093Z,3.23
2022-07-28T15:36:14.991Z,3.90
2022-07-28T15:38:42.002Z,3.70
2022-07-28T15:41:18.104Z,3.50
2022-07-28T15:43:45.531Z,3.30
2022-07-28T15:46:13.840Z,3.30
2022-07-28T15:48:43.018Z,3.77
2022-07-28T15:51:10.143Z,4.00
2022-07-28T15:53:37.966Z,3.80
2022-07-28T15:56:05.463Z,3.70
2022-07-28T15:58:32.475Z,3.93
2022-07-28T16:01:01.584Z,3.20
2022-07-28T16:03:30.343Z,3.27
2022-07-28T16:05:58.947Z,3.67
2022-07-28T16:08:27.154Z,3.93
2022-07-28T16:10:55.025Z,3.40
2022-07-28T16:13:36.353Z,3.90
2022-07-28T16:16:09.792Z,3.97
2022-07-28T16:18:38.473Z,3.93
2022-07-28T16:21:06.734Z,4.37
2022-07-28T16:23:34.132Z,3.77
2022-07-28T16:26:01.307Z,3.77
2022-07-28T16:28:28.476Z,3.60
2022-07-28T16:30:56.565Z,3.43
2022-07-28T16:33:23.836Z,3.97
2022-07-28T16:35:50.837Z,3.90
2022-07-28T16:38:19.791Z,3.63
2022-07-28T16:40:46.805Z,3.60
2022-07-28T16:43:13.750Z,3.50
2022-07-28T16:45:41.357Z,4.13
2022-07-28T16:48:08.446Z,3.97
2022-07-28T16:50:35.532Z,3.90
2022-07-28T16:53:05.191Z,3.67
2022-07-28T16:55:32.282Z,3.07
2022-07-28T16:57:59.376Z,3.80
2022-07-28T17:00:27.101Z,4.20
2022-07-28T17:02:54.087Z,3.87
2022-07-28T17:05:21.114Z,3.67
2022-07-28T17:07:48.134Z,3.60
2022-07-28T17:10:21.233Z,3.70
2022-07-28T17:12:54.947Z,3.90
2022-07-28T17:15:23.018Z,4.57
2022-07-28T17:17:56.070Z,4.67
2022-07-28T17:20:25.148Z,3.73
2022-07-28T17:22:52.268Z,3.73
2022-07-28T17:28:06.737Z,3.70
2022-07-28T17:30:34.470Z,3.73
2022-07-28T17:33:07.859Z,3.80
2022-07-28T17:35:36.963Z,3.70
2022-07-28T17:38:05.969Z,4.33
2022-07-28T17:40:33.272Z,3.90
2022-07-28T17:43:00.454Z,4.00
2022-07-28T17:45:27.525Z,4.07
2022-07-28T17:47:54.534Z,3.17
2022-07-28T17:50:21.528Z,3.40
2022-07-28T17:52:48.581Z,3.87
2022-07-28T17:55:57.457Z,4.00
2022-07-28T17:58:27.112Z,3.50
2022-07-28T18:01:11.230Z,3.30
2022-07-28T18:03:58.202Z,4.43
2022-07-28T18:06:32.639Z,4.70
2022-07-28T18:09:05.659Z,3.90
2022-07-28T18:11:55.544Z,3.97
2022-07-28T18:14:26.735Z,3.87
2022-07-28T18:16:53.857Z,3.83
2022-07-28T18:19:20.854Z,4.07
2022-07-28T18:21:47.815Z,4.00
2022-07-28T18:24:15.045Z,4.17
2022-07-28T18:26:42.187Z,3.80
2022-07-28T18:29:09.245Z,3.70
2022-07-28T18:31:43.888Z,4.40
2022-07-28T18:34:13.479Z,4.17
2022-07-28T18:36:40.834Z,4.20
2022-07-28T18:39:08.896Z,4.43
2022-07-28T18:41:46.598Z,4.23
2022-07-28T18:44:19.256Z,4.07
2022-07-28T18:46:46.963Z,4.47
2022-07-28T18:49:14.727Z,3.93
2022-07-28T18:51:44.916Z,4.00
2022-07-28T18:54:13.311Z,4.20
2022-07-28T18:56:40.657Z,4.10
2022-07-28T18:59:07.652Z,4.40
2022-07-28T19:01:34.705Z,4.93
2022-07-28T19:04:01.769Z,4.70
2022-07-28T19:06:29.542Z,4.30
2022-07-28T19:08:56.603Z,4.43
2022-07-28T19:11:23.554Z,4.20
2022-07-28T19:13:50.558Z,4.67
2022-07-28T19:16:19.136Z,4.13
2022-07-28T19:18:46.180Z,4.37
2022-07-28T19:21:13.961Z,4.30
2022-07-28T19:23:41.063Z,3.87
2022-07-28T19:26:08.067Z,4.53
2022-07-28T19:28:36.482Z,4.03
2022-07-28T19:31:10.162Z,4.13
2022-07-28T19:33:37.799Z,4.33
2022-07-28T19:36:11.898Z,4.10
2022-07-28T19:38:39.106Z,4.40
2022-07-28T19:41:06.172Z,4.50
2022-07-28T19:43:35.284Z,3.70
2022-07-28T19:46:02.822Z,4.43
2022-07-28T19:48:29.851Z,5.20
2022-07-28T19:50:56.964Z,3.97
2022-07-28T19:53:25.334Z,4.43
2022-07-28T19:55:59.652Z,3.90
2022-07-28T19:58:26.680Z,4.63
2022-07-28T20:00:56.524Z,4.27
2022-07-28T20:04:01.365Z,4.37
2022-07-28T20:06:11.665Z,4.10
2022-07-28T20:08:39.079Z,4.43
2022-07-28T20:11:06.780Z,4.33
2022-07-28T20:13:33.837Z,4.07
2022-07-28T20:16:00.894Z,4.60
2022-07-28T20:18:27.926Z,4.27
2022-07-28T20:20:54.941Z,4.07
2022-07-28T20:23:22.321Z,4.30
2022-07-28T20:25:49.414Z,3.60
2022-07-28T20:28:16.419Z,3.80
2022-07-28T20:30:43.739Z,4.20
2022-07-28T20:33:10.753Z,3.90
2022-07-28T20:35:37.724Z,4.20
2022-07-28T20:38:06.341Z,4.03
2022-07-28T20:40:33.393Z,4.63
2022-07-28T20:43:00.626Z,4.03
2022-07-28T20:45:27.634Z,4.27
2022-07-28T20:47:54.589Z,4.23
2022-07-28T20:50:21.869Z,4.13
2022-07-28T20:52:48.897Z,4.13
2022-07-28T20:55:15.943Z,4.00
2022-07-28T20:57:53.072Z,4.73
2022-07-28T21:00:20.662Z,4.00
2022-07-28T21:02:47.821Z,4.40
2022-07-28T21:05:26.730Z,4.20
2022-07-28T21:08:06.146Z,4.10
2022-07-28T21:10:36.877Z,4.67
2022-07-28T21:13:04.071Z,4.23
2022-07-28T21:15:31.399Z,4.20
2022-07-28T21:17:59.279Z,4.00
2022-07-28T21:20:26.737Z,4.30
2022-07-28T21:22:53.771Z,3.70
2022-07-28T21:25:20.817Z,3.90
2022-07-28T21:28:06.614Z,4.00
2022-07-28T21:30:33.684Z,4.10
2022-07-28T21:33:00.735Z,3.93
2022-07-28T21:35:27.812Z,4.20
2022-07-28T21:37:54.797Z,4.30
2022-07-28T21:40:21.860Z,4.60
2022-07-28T21:42:48.831Z,4.20
2022-07-28T21:45:15.821Z,4.90
2022-07-28T21:47:42.874Z,4.07
2022-07-28T21:50:10.600Z,4.20
2022-07-28T21:52:38.435Z,4.00
2022-07-28T21:55:08.531Z,4.57
2022-07-28T21:57:35.766Z,4.80
2022-07-28T22:00:04.210Z,4.97
2022-07-28T22:02:31.218Z,4.53
2022-07-28T22:05:00.131Z,4.80
2022-07-28T22:07:27.230Z,4.57
2022-07-28T22:09:54.240Z,4.20
2022-07-28T22:12:21.437Z,4.40
2022-07-28T22:14:48.399Z,4.30
2022-07-28T22:17:15.400Z,3.90
2022-07-28T22:19:42.376Z,4.50
2022-07-28T22:22:09.398Z,4.40
2022-07-28T22:24:36.385Z,4.47
2022-07-28T22:27:03.440Z,4.90
2022-07-28T22:29:30.976Z,4.17
2022-07-28T22:31:59.540Z,5.03
2022-07-28T22:34:28.076Z,4.50
2022-07-28T22:36:55.312Z,4.30
2022-07-28T22:39:22.466Z,4.67
2022-07-28T22:41:49.635Z,5.00
2022-07-28T22:44:17.197Z,4.63
2022-07-28T22:46:44.910Z,5.23
2022-07-28T22:49:12.028Z,4.70
2022-07-28T22:51:39.067Z,4.40
2022-07-28T22:54:13.984Z,4.50
2022-07-28T22:56:41.700Z,4.70
2022-07-28T22:59:09.344Z,5.23
2022-07-28T23:01:37.247Z,5.00
2022-07-28T23:04:04.984Z,4.73
2022-07-28T23:06:35.326Z,4.63
2022-07-28T23:09:02.334Z,4.77
2022-07-28T23:11:29.282Z,4.60
2022-07-28T23:13:56.322Z,4.50
2022-07-28T23:16:23.962Z,5.13
2022-07-28T23:18:51.032Z,4.80
2022-07-28T23:21:18.026Z,4.60
2022-07-28T23:23:45.109Z,5.23
2022-07-28T23:26:12.156Z,4.80
2022-07-28T23:28:39.255Z,5.90
2022-07-28T23:31:06.659Z,4.73
2022-07-28T23:33:55.163Z,4.83
2022-07-28T23:36:26.838Z,5.07
2022-07-28T23:38:57.040Z,4.40
2022-07-28T23:41:25.181Z,5.00
2022-07-28T23:43:52.117Z,5.03
2022-07-28T23:46:19.095Z,4.80
2022-07-28T23:48:46.169Z,4.77
2022-07-28T23:51:14.455Z,4.70
2022-07-28T23:53:41.644Z,5.67
2022-07-28T23:56:09.321Z,5.03
2022-07-28T23:58:36.304Z,5.07
